createdAt,value
2023-02-03T00:00:50.332Z,68.83
2023-02-03T00:03:52.842Z,68.36
2023-02-03T00:06:55.512Z,68.46
2023-02-03T00:09:58.159Z,69.13
2023-02-03T00:13:01.830Z,68.22
2023-02-03T00:16:06.800Z,68.75
2023-02-03T00:19:11.367Z,69.12
2023-02-03T00:22:13.910Z,68.86
2023-02-03T00:25:16.981Z,69.45
2023-02-03T00:28:19.516Z,69.90
2023-02-03T00:31:25.208Z,69.36
2023-02-03T00:34:31.539Z,69.83
2023-02-03T00:37:34.079Z,70.28
2023-02-03T00:40:36.852Z,69.75
2023-02-03T00:43:39.408Z,69.12
2023-02-03T00:46:43.723Z,69.56
2023-02-03T00:49:46.297Z,69.51
2023-02-03T00:52:48.983Z,69.48
2023-02-03T00:55:52.264Z,70.35
2023-02-03T00:58:55.454Z,70.19
2023-02-03T01:01:58.174Z,70.69
2023-02-03T01:05:01.735Z,69.98
2023-02-03T01:08:04.563Z,69.89
2023-02-03T01:11:09.883Z,70.03
2023-02-03T01:14:12.420Z,69.35
2023-02-03T01:17:14.921Z,69.83
2023-02-03T01:20:17.697Z,69.10
2023-02-03T01:23:20.148Z,69.18
2023-02-03T01:26:24.679Z,68.28
2023-02-03T01:29:27.200Z,68.59
2023-02-03T01:32:33.376Z,68.42
2023-02-03T01:35:36.720Z,69.35
2023-02-03T01:38:41.212Z,69.35
2023-02-03T01:41:43.830Z,68.97
2023-02-03T01:44:53.323Z,69.26
2023-02-03T01:47:58.705Z,69.13
2023-02-03T01:51:03.026Z,69.23
2023-02-03T01:54:08.042Z,69.21
2023-02-03T01:57:31.969Z,67.99
2023-02-03T02:00:34.683Z,68.30
2023-02-03T02:03:43.090Z,68.51
2023-02-03T02:06:48.312Z,67.69
2023-02-03T02:09:52.566Z,67.96
2023-02-03T02:12:59.382Z,68.01
2023-02-03T02:16:11.004Z,68.52
2023-02-03T02:19:33.100Z,68.69
2023-02-03T02:23:00.943Z,68.37
2023-02-03T02:26:49.486Z,68.71
2023-02-03T02:30:05.816Z,69.12
2023-02-03T02:33:19.670Z,69.63
2023-02-03T02:36:58.953Z,70.33
2023-02-03T02:40:33.005Z,70.63
2023-02-03T02:43:47.180Z,71.39
2023-02-03T02:46:54.052Z,71.55
2023-02-03T02:50:12.583Z,71.52
2023-02-03T02:53:18.208Z,72.00
2023-02-03T02:56:22.317Z,72.25
2023-02-03T02:59:28.197Z,72.51
2023-02-03T03:02:35.408Z,73.10
2023-02-03T03:05:41.690Z,72.52
2023-02-03T03:08:59.189Z,73.31
2023-02-03T03:12:13.746Z,73.16
2023-02-03T03:15:25.472Z,72.61
2023-02-03T03:18:37.110Z,72.60
2023-02-03T03:21:45.776Z,72.39
2023-02-03T03:24:53.054Z,72.22
2023-02-03T03:28:01.151Z,71.88
2023-02-03T03:31:06.000Z,71.48
2023-02-03T03:34:10.474Z,71.45
2023-02-03T03:37:21.433Z,71.75
2023-02-03T03:40:43.576Z,71.41
2023-02-03T03:43:49.554Z,71.77
2023-02-03T03:47:05.734Z,71.71
2023-02-03T03:50:15.411Z,71.59
2023-02-03T03:53:24.953Z,71.88
2023-02-03T03:56:38.048Z,72.21
2023-02-03T03:59:43.327Z,72.04
2023-02-03T04:02:52.147Z,71.99
2023-02-03T04:05:56.348Z,71.97
2023-02-03T04:09:07.228Z,71.88
2023-02-03T04:12:25.845Z,72.50
2023-02-03T04:15:32.831Z,72.91
2023-02-03T04:18:36.400Z,72.90
2023-02-03T04:21:39.921Z,72.84
2023-02-03T04:24:44.093Z,72.46
2023-02-03T04:27:47.714Z,72.58
2023-02-03T04:30:51.408Z,72.78
2023-02-03T04:33:58.443Z,73.12
2023-02-03T04:37:01.757Z,72.85
2023-02-03T04:40:06.433Z,72.97
2023-02-03T04:43:10.299Z,72.42
2023-02-03T04:46:15.180Z,72.87
2023-02-03T04:49:18.792Z,72.43
2023-02-03T04:52:23.903Z,72.28
2023-02-03T04:55:32.885Z,72.32
2023-02-03T04:58:37.257Z,72.78
2023-02-03T05:01:41.773Z,73.90
2023-02-03T05:04:45.048Z,74.16
2023-02-03T05:07:48.875Z,73.84
2023-02-03T05:10:52.491Z,73.12
2023-02-03T05:13:59.530Z,74.01
2023-02-03T05:17:04.764Z,73.58
2023-02-03T05:20:09.399Z,73.57
2023-02-03T05:23:14.935Z,74.03
2023-02-03T05:26:18.343Z,74.42
2023-02-03T05:29:23.178Z,74.65
2023-02-03T05:32:28.796Z,74.43
2023-02-03T05:35:32.612Z,74.02
2023-02-03T05:38:40.598Z,73.43
2023-02-03T05:41:53.178Z,72.76
2023-02-03T05:44:59.503Z,72.57
2023-02-03T05:48:06.227Z,71.80
2023-02-03T05:51:10.626Z,71.89
2023-02-03T05:54:18.685Z,74.02
2023-02-03T05:57:26.148Z,74.24
2023-02-03T06:00:35.523Z,75.35
2023-02-03T06:03:42.006Z,74.73
2023-02-03T06:06:50.710Z,75.01
2023-02-03T06:09:54.674Z,76.33
2023-02-03T06:12:59.228Z,76.12
2023-02-03T06:16:07.325Z,75.88
2023-02-03T06:19:16.301Z,75.57
2023-02-03T06:22:20.917Z,75.61
2023-02-03T06:25:37.126Z,75.75
2023-02-03T06:28:44.183Z,75.12
2023-02-03T06:31:50.371Z,75.03
2023-02-03T06:34:55.871Z,74.82
2023-02-03T06:38:00.389Z,74.91
2023-02-03T06:41:04.131Z,75.20
2023-02-03T06:44:08.584Z,75.29
2023-02-03T06:47:12.358Z,75.23
2023-02-03T06:50:16.909Z,75.63
2023-02-03T06:53:20.903Z,76.47
2023-02-03T06:56:29.064Z,76.75
2023-02-03T06:59:36.494Z,77.07
2023-02-03T07:02:42.053Z,76.41
2023-02-03T07:05:45.579Z,75.91
2023-02-03T07:08:53.421Z,76.42
2023-02-03T07:11:58.567Z,76.02
2023-02-03T07:15:08.220Z,76.38
2023-02-03T07:18:11.889Z,76.61
2023-02-03T07:21:19.855Z,76.27
2023-02-03T07:24:26.806Z,75.77
2023-02-03T07:27:34.471Z,76.09
2023-02-03T07:30:38.084Z,76.68
2023-02-03T07:33:45.768Z,76.00
2023-02-03T07:37:00.312Z,77.24
2023-02-03T07:40:03.959Z,77.35
2023-02-03T07:43:13.394Z,78.50
2023-02-03T07:46:24.876Z,78.90
2023-02-03T07:49:29.876Z,79.24
2023-02-03T07:52:37.266Z,80.50
2023-02-03T07:55:41.600Z,81.83
2023-02-03T07:58:48.647Z,81.92
2023-02-03T08:01:57.103Z,83.08
2023-02-03T08:05:06.264Z,84.27
2023-02-03T08:08:17.263Z,83.49
2023-02-03T08:11:21.007Z,83.95
2023-02-03T08:14:25.383Z,85.10
2023-02-03T08:17:29.965Z,85.30
2023-02-03T08:20:33.654Z,84.85
2023-02-03T08:23:39.642Z,86.21
2023-02-03T08:26:48.808Z,87.24
2023-02-03T08:29:55.666Z,87.41
2023-02-03T08:33:06.592Z,87.65
2023-02-03T08:39:36.107Z,87.80
2023-02-03T08:42:45.650Z,88.63
2023-02-03T08:45:52.667Z,90.33
2023-02-03T08:49:01.540Z,89.30
2023-02-03T08:52:05.070Z,88.55
2023-02-03T08:55:18.950Z,86.94
2023-02-03T08:58:25.512Z,88.23
2023-02-03T09:01:32.083Z,88.59
2023-02-03T09:04:41.144Z,90.15
2023-02-03T09:07:45.459Z,89.79
2023-02-03T09:10:52.729Z,90.04
2023-02-03T09:14:00.937Z,88.76
2023-02-03T09:17:11.521Z,89.62
2023-02-03T09:20:16.467Z,90.12
2023-02-03T09:23:20.013Z,89.82
2023-02-03T09:26:23.572Z,89.41
2023-02-03T09:29:30.158Z,88.70
2023-02-03T09:32:36.404Z,89.69
2023-02-03T09:35:41.039Z,89.92
2023-02-03T09:38:48.900Z,89.61
2023-02-03T09:42:42.439Z,89.71
2023-02-03T09:45:49.712Z,87.91
2023-02-03T09:49:10.580Z,89.02
2023-02-03T09:52:45.791Z,87.80
2023-02-03T09:55:55.299Z,89.04
2023-02-03T09:59:13.951Z,88.24
2023-02-03T10:02:26.535Z,88.68
2023-02-03T10:06:06.114Z,90.99
2023-02-03T10:09:34.297Z,90.38
2023-02-03T10:12:38.168Z,90.80
2023-02-03T10:16:06.046Z,89.65
2023-02-03T10:19:18.552Z,89.08
2023-02-03T10:22:30.960Z,90.11
2023-02-03T10:25:57.524Z,90.32
2023-02-03T10:29:22.356Z,90.33
2023-02-03T10:32:32.302Z,90.95
2023-02-03T10:36:06.108Z,90.52
2023-02-03T10:39:20.947Z,89.71
2023-02-03T10:42:25.350Z,89.16
2023-02-03T10:45:32.576Z,88.09
2023-02-03T10:48:37.888Z,89.37
2023-02-03T10:51:54.756Z,88.58
2023-02-03T10:54:59.948Z,87.42
2023-02-03T10:58:25.693Z,87.62
2023-02-03T11:01:42.420Z,87.68
2023-02-03T11:04:45.763Z,88.67
2023-02-03T11:07:49.467Z,89.28
2023-02-03T11:11:03.263Z,92.35
2023-02-03T11:14:06.909Z,92.08
2023-02-03T11:17:20.420Z,92.02
2023-02-03T11:20:29.474Z,92.54
2023-02-03T11:23:33.698Z,90.17
2023-02-03T11:26:42.532Z,90.39
2023-02-03T11:29:50.074Z,90.99
2023-02-03T11:32:56.128Z,90.97
2023-02-03T11:36:00.694Z,88.90
2023-02-03T11:39:24.284Z,89.70
2023-02-03T11:42:32.119Z,87.03
2023-02-03T11:45:49.389Z,87.48
2023-02-03T11:49:35.811Z,86.54
2023-02-03T11:53:02.520Z,86.42
2023-02-03T11:56:27.782Z,87.34
2023-02-03T11:59:53.694Z,88.01
2023-02-03T12:03:13.271Z,88.40
2023-02-03T12:06:25.286Z,89.09
2023-02-03T12:09:55.441Z,88.77
2023-02-03T12:13:08.524Z,88.13
2023-02-03T12:16:51.688Z,89.33
2023-02-03T12:20:18.974Z,88.73
2023-02-03T12:23:23.659Z,90.30
2023-02-03T12:26:35.420Z,90.11
2023-02-03T12:29:45.196Z,89.39
2023-02-03T12:33:18.833Z,87.78
2023-02-03T12:36:29.340Z,87.38
2023-02-03T12:39:40.310Z,88.48
2023-02-03T12:43:13.023Z,88.50
2023-02-03T12:46:41.277Z,88.39
2023-02-03T12:49:52.857Z,88.59
2023-02-03T12:53:01.188Z,88.27
2023-02-03T12:56:18.941Z,89.09
2023-02-03T12:59:26.066Z,88.87
2023-02-03T13:02:36.825Z,88.74
2023-02-03T13:06:12.754Z,88.11
2023-02-03T13:09:41.419Z,87.33
2023-02-03T13:12:57.317Z,88.82
2023-02-03T13:16:01.336Z,88.31
2023-02-03T13:22:28.262Z,88.03
2023-02-03T13:25:46.396Z,88.30
2023-02-03T13:29:01.909Z,90.35
2023-02-03T13:32:27.502Z,91.02
2023-02-03T13:35:45.886Z,90.31
2023-02-03T13:39:22.856Z,90.62
2023-02-03T13:42:27.858Z,90.59
2023-02-03T13:45:41.621Z,90.60
2023-02-03T13:48:45.868Z,90.67
2023-02-03T13:51:50.803Z,91.44
2023-02-03T13:54:53.925Z,90.51
2023-02-03T13:57:57.376Z,90.74
2023-02-03T14:01:02.693Z,89.75
2023-02-03T14:04:09.447Z,89.28
2023-02-03T14:07:38.668Z,88.86
2023-02-03T14:10:45.629Z,88.52
2023-02-03T14:13:52.747Z,88.86
2023-02-03T14:16:56.531Z,88.38
2023-02-03T14:20:00.389Z,88.46
2023-02-03T14:23:09.064Z,87.66
2023-02-03T14:26:20.284Z,87.40
2023-02-03T14:29:32.878Z,88.83
2023-02-03T14:33:00.760Z,88.21
2023-02-03T14:36:26.720Z,89.00
2023-02-03T14:39:58.583Z,88.97
2023-02-03T14:43:44.554Z,89.17
2023-02-03T14:47:02.530Z,89.14
2023-02-03T14:50:07.270Z,88.53
2023-02-03T14:53:28.479Z,92.29
2023-02-03T14:57:12.438Z,93.93
2023-02-03T15:00:26.843Z,92.13
2023-02-03T15:03:31.456Z,92.85
2023-02-03T15:06:48.582Z,96.00
